Time;durP1;ratioP1;P1;durP2;ratioP2;P2;SDS_P1;SDS_P2;PMS_P1;PMS_P2;Temp;Humidity;BMP_temperature;BMP_pressure;BME280_temperature;BME280_humidity;BME280_pressure;Samples;Min_cycle;Max_cycle;Signal;HPM_P1;HPM_P2
2022/04/24 00:01:08;;;;;;;12.57;6.97;;;9.20;99.90;;;;;;6220536;23;20020;-89
2022/04/24 00:03:34;;;;;;;11.02;7.68;;;9.20;99.90;;;;;;6220273;23;20024;-88
2022/04/24 00:06:00;;;;;;;10.80;7.95;;;9.10;99.90;;;;;;6247196;23;20027;-90
2022/04/24 00:08:25;;;;;;;10.33;7.77;;;9.00;99.90;;;;;;6220403;23;20016;-90
2022/04/24 00:10:51;;;;;;;11.07;7.53;;;9.00;99.90;;;;;;6220330;23;20020;-87
2022/04/24 00:13:17;;;;;;;9.33;7.50;;;9.00;99.90;;;;;;6195578;23;20239;-88
2022/04/24 00:15:43;;;;;;;10.57;8.23;;;9.00;99.90;;;;;;6220306;23;20038;-90
2022/04/24 00:18:08;;;;;;;9.90;7.50;;;9.00;99.90;;;;;;6220458;23;20016;-88
2022/04/24 00:20:34;;;;;;;10.07;7.43;;;8.90;99.90;;;;;;6220276;23;20020;-90
2022/04/24 00:23:00;;;;;;;10.67;7.63;;;8.90;99.90;;;;;;6220269;23;20392;-91
2022/04/24 00:25:26;;;;;;;12.88;7.60;;;8.80;99.90;;;;;;6247132;23;20052;-87
2022/04/24 00:27:52;;;;;;;12.48;7.63;;;8.70;99.90;;;;;;6247174;23;20647;-88
2022/04/24 00:30:18;;;;;;;9.90;7.20;;;8.70;99.90;;;;;;6220386;23;20020;-87
2022/04/24 00:32:43;;;;;;;11.80;7.10;;;8.60;99.90;;;;;;6246986;23;20067;-90
2022/04/24 00:35:09;;;;;;;10.23;7.83;;;8.60;99.90;;;;;;6246652;23;20016;-90
2022/04/24 00:37:35;;;;;;;10.77;8.27;;;8.60;99.90;;;;;;6219875;23;20012;-86
2022/04/24 00:40:00;;;;;;;11.20;7.73;;;8.60;99.90;;;;;;6246951;23;20016;-87
2022/04/24 00:42:26;;;;;;;12.23;8.07;;;8.60;99.90;;;;;;6246896;23;20394;-86
2022/04/24 00:44:52;;;;;;;10.33;7.83;;;8.60;99.90;;;;;;6247110;23;20469;-89
2022/04/24 00:47:20;;;;;;;10.53;7.93;;;8.60;99.90;;;;;;6219927;23;20016;-89
2022/04/24 00:49:46;;;;;;;13.10;8.38;;;8.60;99.90;;;;;;6219713;23;20109;-87
2022/04/24 00:52:13;;;;;;;10.70;8.60;;;8.60;99.90;;;;;;6246577;23;20350;-87
2022/04/24 00:54:39;;;;;;;11.65;8.23;;;8.60;99.90;;;;;;6220081;23;20023;-88
2022/04/24 00:57:09;;;;;;;11.55;8.00;;;8.60;99.90;;;;;;6219358;23;20095;-88
2022/04/24 00:59:37;;;;;;;10.38;8.02;;;8.60;99.90;;;;;;6219310;23;20453;-87
2022/04/24 01:02:03;;;;;;;10.95;7.97;;;8.60;99.90;;;;;;6219371;23;20016;-88
2022/04/24 01:04:29;;;;;;;12.95;8.50;;;8.60;99.90;;;;;;6219029;23;20024;-90
2022/04/24 01:06:55;;;;;;;13.13;7.97;;;8.60;99.90;;;;;;6219691;23;20361;-91
2022/04/24 01:09:23;;;;;;;10.03;8.73;;;8.50;99.90;;;;;;6219421;23;20027;-92
2022/04/24 01:11:54;;;;;;;11.10;8.38;;;8.50;99.90;;;;;;6246242;23;20024;-88
2022/04/24 01:14:25;;;;;;;13.15;8.63;;;8.60;99.90;;;;;;6219121;23;20024;-88
2022/04/24 01:16:51;;;;;;;11.50;8.52;;;8.50;99.90;;;;;;6246131;23;20095;-87
2022/04/24 01:19:17;;;;;;;10.98;8.68;;;8.50;99.90;;;;;;6219114;23;20414;-90
2022/04/24 01:21:45;;;;;;;10.23;8.27;;;8.50;99.90;;;;;;6219963;23;20023;-89
2022/04/24 01:24:13;;;;;;;9.88;7.85;;;8.40;99.90;;;;;;6219054;23;20028;-88
2022/04/24 01:26:39;;;;;;;12.52;8.77;;;8.40;99.90;;;;;;6219239;23;20016;-88
2022/04/24 01:29:06;;;;;;;12.90;8.65;;;8.40;99.90;;;;;;6219256;23;20016;-88
2022/04/24 01:31:35;;;;;;;11.55;8.68;;;8.30;99.90;;;;;;6219225;23;20020;-88
2022/04/24 01:34:00;;;;;;;10.80;8.20;;;8.30;99.90;;;;;;6193967;23;20020;-89
2022/04/24 01:36:26;;;;;;;11.10;8.30;;;8.20;99.90;;;;;;6246209;23;20019;-93
2022/04/24 01:38:52;;;;;;;12.07;8.60;;;8.20;99.90;;;;;;6194342;23;20012;-89
2022/04/24 01:41:18;;;;;;;10.80;8.73;;;8.20;99.90;;;;;;6246235;23;20605;-92
2022/04/24 01:43:44;;;;;;;10.53;8.50;;;8.20;99.90;;;;;;6246014;23;20278;-89
2022/04/24 01:46:11;;;;;;;11.38;9.13;;;8.20;99.90;;;;;;6219570;23;20086;-94
2022/04/24 01:48:36;;;;;;;9.70;8.05;;;8.20;99.90;;;;;;6219295;23;20028;-91
2022/04/24 01:51:04;;;;;;;11.93;9.10;;;8.20;99.90;;;;;;6194259;23;20337;-93
2022/04/24 01:53:31;;;;;;;10.77;8.63;;;8.10;99.90;;;;;;6193900;23;20457;-91
2022/04/24 01:55:57;;;;;;;11.85;8.38;;;8.20;99.90;;;;;;6246277;23;20051;-90
2022/04/24 01:58:24;;;;;;;12.68;9.05;;;8.20;99.90;;;;;;6193994;23;20017;-88
2022/04/24 02:00:50;;;;;;;11.25;8.55;;;8.20;99.90;;;;;;6246052;23;20020;-90
2022/04/24 02:03:16;;;;;;;11.65;8.63;;;8.20;99.90;;;;;;6218987;23;20016;-91
2022/04/24 02:05:41;;;;;;;11.00;8.20;;;8.10;99.90;;;;;;6219249;23;20178;-89
2022/04/24 02:08:07;;;;;;;12.17;8.70;;;8.20;99.90;;;;;;6219370;23;20090;-86
2022/04/24 02:10:33;;;;;;;11.33;8.73;;;8.20;99.90;;;;;;6219240;23;20024;-88
2022/04/24 02:12:58;;;;;;;12.73;9.03;;;8.20;99.90;;;;;;6219462;23;20059;-90
2022/04/24 02:15:24;;;;;;;11.40;8.57;;;8.20;99.90;;;;;;6219380;23;20323;-94
2022/04/24 02:17:50;;;;;;;11.13;8.63;;;8.20;99.90;;;;;;6194439;23;20047;-90
2022/04/24 02:20:15;;;;;;;12.30;9.43;;;8.20;99.90;;;;;;6219281;23;20023;-90
2022/04/24 02:22:41;;;;;;;11.53;9.20;;;8.10;99.90;;;;;;6219374;23;20047;-88
2022/04/24 02:25:07;;;;;;;12.37;8.70;;;8.10;99.90;;;;;;6219409;23;20019;-87
2022/04/24 02:27:34;;;;;;;11.57;9.40;;;8.10;99.90;;;;;;6219407;23;20074;-91
2022/04/24 02:30:00;;;;;;;11.52;8.75;;;8.10;99.90;;;;;;6219184;23;20016;-91
2022/04/24 02:32:25;;;;;;;11.75;8.65;;;8.10;99.90;;;;;;6246194;23;20023;-90
2022/04/24 02:34:51;;;;;;;11.43;8.80;;;8.00;99.90;;;;;;6219104;23;20016;-90
2022/04/24 02:37:16;;;;;;;12.53;8.67;;;8.00;99.90;;;;;;6219480;23;20023;-90
2022/04/24 02:39:42;;;;;;;12.07;8.47;;;8.10;99.90;;;;;;6219444;23;20027;-91
2022/04/24 02:42:08;;;;;;;10.90;8.87;;;8.00;99.90;;;;;;6194363;23;20044;-91
2022/04/24 02:44:34;;;;;;;10.97;8.73;;;8.00;99.90;;;;;;6218862;23;20099;-88
2022/04/24 02:47:00;;;;;;;10.65;8.43;;;8.00;99.90;;;;;;6246183;23;20016;-88
2022/04/24 02:49:26;;;;;;;11.68;8.55;;;8.00;99.90;;;;;;6221433;23;20103;-88
2022/04/24 02:51:52;;;;;;;12.73;8.57;;;7.90;99.90;;;;;;6196402;23;20048;-87
2022/04/24 02:54:17;;;;;;;13.60;8.83;;;7.90;99.90;;;;;;6247935;23;20023;-90
2022/04/24 02:56:46;;;;;;;12.97;9.10;;;7.90;99.90;;;;;;6221034;23;20389;-84
2022/04/24 02:59:15;;;;;;;11.90;8.63;;;7.90;99.90;;;;;;6220379;23;20020;-85
2022/04/24 03:01:41;;;;;;;14.20;9.35;;;7.90;99.90;;;;;;6220511;23;20058;-84
2022/04/24 03:04:06;;;;;;;13.13;9.03;;;7.90;99.90;;;;;;6220143;23;20016;-84
2022/04/24 03:06:32;;;;;;;12.00;8.37;;;7.80;99.90;;;;;;6195415;23;20049;-89
2022/04/24 03:08:58;;;;;;;11.70;8.83;;;7.80;99.90;;;;;;6220834;23;20016;-93
2022/04/24 03:11:42;;;;;;;12.70;8.93;;;7.80;99.90;;;;;;6195733;23;20353;-90
2022/04/24 03:14:35;;;;;;;10.95;8.27;;;7.80;99.90;;;;;;6220882;23;20026;-89
2022/04/24 03:17:03;;;;;;;9.43;7.60;;;7.70;99.90;;;;;;6195901;23;20109;-89
2022/04/24 03:19:28;;;;;;;14.98;8.88;;;7.70;99.90;;;;;;6170991;23;20400;-86
2022/04/24 03:21:54;;;;;;;12.83;8.63;;;7.70;99.90;;;;;;6220010;23;20019;-85
2022/04/24 03:24:20;;;;;;;10.57;7.73;;;7.70;99.90;;;;;;6219936;23;20024;-86
2022/04/24 03:26:51;;;;;;;11.90;8.53;;;7.70;99.90;;;;;;6195199;23;20012;-87
2022/04/24 03:29:17;;;;;;;13.55;9.05;;;7.70;99.90;;;;;;6220263;23;20020;-87
2022/04/24 03:31:43;;;;;;;10.43;8.10;;;7.70;99.90;;;;;;6195330;23;20012;-88
2022/04/24 03:34:09;;;;;;;15.80;9.30;;;7.70;99.90;;;;;;6220672;23;20113;-90
2022/04/24 03:36:34;;;;;;;12.70;8.80;;;7.70;99.90;;;;;;6195642;23;20251;-90
2022/04/24 03:39:00;;;;;;;13.03;8.83;;;7.70;99.90;;;;;;6220340;23;20031;-89
2022/04/24 03:41:26;;;;;;;10.83;8.53;;;7.70;99.90;;;;;;6196006;23;20020;-89
2022/04/24 03:43:51;;;;;;;10.57;7.37;;;7.70;99.90;;;;;;6220468;23;20047;-92
2022/04/24 03:46:17;;;;;;;13.50;8.30;;;7.60;99.90;;;;;;6247556;23;20027;-88
2022/04/24 03:48:42;;;;;;;12.80;8.47;;;7.60;99.90;;;;;;6220331;23;20341;-90
2022/04/24 03:51:08;;;;;;;12.37;8.40;;;7.60;99.90;;;;;;6220498;23;20020;-91
2022/04/24 03:53:34;;;;;;;11.80;8.53;;;7.50;99.90;;;;;;6220420;23;20467;-86
2022/04/24 03:56:00;;;;;;;13.00;8.43;;;7.50;99.90;;;;;;6247126;23;20319;-87
2022/04/24 03:58:25;;;;;;;12.03;8.37;;;7.50;99.90;;;;;;6246663;23;20085;-87
2022/04/24 04:00:51;;;;;;;14.10;8.17;;;7.40;99.90;;;;;;6220449;23;20016;-89
2022/04/24 04:03:17;;;;;;;11.70;8.50;;;7.40;99.90;;;;;;6220616;23;20350;-89
2022/04/24 04:05:42;;;;;;;14.13;8.63;;;7.40;99.90;;;;;;6247125;23;20024;-89
2022/04/24 04:08:08;;;;;;;11.40;8.43;;;7.40;99.90;;;;;;6195291;23;20111;-89
2022/04/24 04:10:35;;;;;;;12.70;9.10;;;7.40;99.90;;;;;;6194809;23;20327;-91
2022/04/24 04:13:05;;;;;;;12.65;8.50;;;7.30;99.90;;;;;;6247022;23;20016;-88
2022/04/24 04:15:32;;;;;;;12.77;8.63;;;7.30;99.90;;;;;;6219891;23;20023;-88
2022/04/24 04:17:58;;;;;;;;;;;7.30;99.90;;;;;;6220648;23;20016;-88
2022/04/24 04:20:24;;;;;;;12.00;8.95;;;7.30;99.90;;;;;;6219575;23;20424;-87
2022/04/24 04:22:54;;;;;;;15.50;8.90;;;7.30;99.90;;;;;;6220420;23;20476;-88
2022/04/24 04:25:21;;;;;;;13.68;9.55;;;7.20;99.90;;;;;;6220270;23;20062;-91
2022/04/24 04:27:47;;;;;;;14.68;9.80;;;7.20;99.90;;;;;;6195042;23;20070;-91
2022/04/24 04:30:13;;;;;;;13.85;9.95;;;7.20;99.90;;;;;;6219932;23;20096;-92
2022/04/24 04:32:39;;;;;;;14.73;10.15;;;7.20;99.90;;;;;;6219987;23;20035;-90
2022/04/24 04:35:05;;;;;;;14.20;9.27;;;7.20;99.90;;;;;;6246828;23;20342;-89
2022/04/24 04:37:32;;;;;;;14.60;9.88;;;7.30;99.90;;;;;;6220239;23;20395;-89
2022/04/24 04:39:58;;;;;;;14.35;10.05;;;7.30;99.90;;;;;;6195124;23;20043;-92
2022/04/24 04:42:23;;;;;;;15.30;9.43;;;7.30;99.90;;;;;;6219930;23;20103;-91
2022/04/24 04:44:49;;;;;;;14.67;10.33;;;7.30;99.90;;;;;;6220034;23;20047;-89
2022/04/24 04:47:15;;;;;;;13.30;9.37;;;7.30;99.90;;;;;;6219899;23;20016;-90
2022/04/24 04:49:40;;;;;;;13.70;9.97;;;7.30;99.90;;;;;;6195001;23;20531;-88
2022/04/24 04:52:07;;;;;;;14.73;9.63;;;7.30;99.90;;;;;;6220093;23;20019;-88
2022/04/24 04:54:34;;;;;;;16.48;10.75;;;7.30;99.90;;;;;;6219804;23;20540;-89
2022/04/24 04:57:00;;;;;;;15.40;10.40;;;7.30;99.90;;;;;;6220278;23;20086;-89
2022/04/24 04:59:25;;;;;;;15.07;10.00;;;7.40;99.90;;;;;;6246413;23;20446;-90
2022/04/24 05:01:51;;;;;;;16.50;10.83;;;7.40;99.90;;;;;;6194680;23;20016;-91
2022/04/24 05:04:17;;;;;;;16.27;10.87;;;7.40;99.90;;;;;;6219802;23;20070;-89
2022/04/24 05:06:42;;;;;;;14.30;10.00;;;7.40;99.90;;;;;;6246684;23;20031;-90
2022/04/24 05:09:08;;;;;;;15.17;10.30;;;7.50;99.90;;;;;;6194673;23;20016;-89
2022/04/24 05:11:34;;;;;;;14.17;10.67;;;7.50;99.90;;;;;;6194112;23;20008;-89
2022/04/24 05:14:00;;;;;;;15.10;9.60;;;7.60;99.90;;;;;;6219821;23;20027;-88
2022/04/24 05:16:25;;;;;;;15.23;10.70;;;7.60;99.90;;;;;;6194550;23;20008;-89
2022/04/24 05:18:51;;;;;;;13.70;9.73;;;7.60;99.90;;;;;;6246255;23;20341;-90
2022/04/24 05:21:17;;;;;;;15.33;9.90;;;7.70;99.90;;;;;;6194586;23;20345;-91
2022/04/24 05:23:45;;;;;;;15.70;10.33;;;7.70;99.90;;;;;;6246199;23;20095;-87
2022/04/24 05:26:12;;;;;;;14.13;10.20;;;7.70;99.90;;;;;;6219671;23;20453;-88
2022/04/24 05:28:38;;;;;;;14.32;10.27;;;7.70;99.90;;;;;;6246425;23;20023;-89
2022/04/24 05:31:05;;;;;;;14.17;9.07;;;7.80;99.90;;;;;;6219196;23;20016;-88
2022/04/24 05:33:31;;;;;;;14.68;9.35;;;7.80;99.90;;;;;;6219701;23;20099;-89
2022/04/24 05:35:57;;;;;;;16.63;9.67;;;7.90;99.90;;;;;;6219910;23;20044;-90
2022/04/24 05:38:23;;;;;;;14.57;9.50;;;8.00;99.90;;;;;;6246484;23;20020;-90
2022/04/24 05:40:49;;;;;;;14.40;9.07;;;8.10;99.90;;;;;;6194320;23;20020;-89
2022/04/24 05:43:15;;;;;;;13.30;8.77;;;8.10;99.90;;;;;;6219434;23;20409;-87
2022/04/24 05:45:40;;;;;;;15.60;8.53;;;8.20;99.90;;;;;;6219280;23;20024;-87
2022/04/24 05:48:06;;;;;;;12.47;8.40;;;8.30;99.90;;;;;;6219208;23;20251;-88
2022/04/24 05:50:33;;;;;;;12.38;7.93;;;8.40;99.90;;;;;;6219512;23;20016;-88
2022/04/24 05:52:59;;;;;;;11.85;7.93;;;8.40;99.90;;;;;;6245995;23;20016;-88
2022/04/24 05:55:25;;;;;;;13.05;7.82;;;8.50;99.90;;;;;;6246192;23;20472;-87
2022/04/24 05:57:52;;;;;;;12.23;8.13;;;8.70;99.90;;;;;;6194328;23;20083;-89
2022/04/24 06:00:19;;;;;;;11.65;7.32;;;8.90;99.90;;;;;;6245999;23;20078;-88
2022/04/24 06:02:45;;;;;;;12.52;7.72;;;9.30;99.90;;;;;;6194392;23;20341;-88
2022/04/24 06:05:11;;;;;;;9.87;6.90;;;9.60;99.90;;;;;;6219271;23;20020;-89
2022/04/24 06:07:38;;;;;;;9.15;6.32;;;9.90;99.90;;;;;;6194403;23;20019;-88
2022/04/24 06:10:04;;;;;;;;;;;10.20;99.90;;;;;;6194356;23;20020;-89
2022/04/24 06:12:30;;;;;;;12.82;5.97;;;10.40;99.90;;;;;;6219465;23;20252;-89
2022/04/24 06:15:02;;;;;;;9.13;5.30;;;10.70;99.90;;;;;;6219246;23;20024;-89
2022/04/24 06:17:37;;;;;;;9.23;5.28;;;10.80;99.90;;;;;;6194722;23;20058;-88
2022/04/24 06:20:03;;;;;;;8.60;4.90;;;10.50;99.90;;;;;;6193925;23;20114;-89
2022/04/24 06:22:29;;;;;;;7.72;4.55;;;10.30;99.90;;;;;;6221094;23;20115;-91
2022/04/24 06:24:55;;;;;;;7.90;4.63;;;10.10;99.90;;;;;;6196140;23;20062;-87
2022/04/24 06:27:21;;;;;;;8.90;4.80;;;10.00;99.90;;;;;;6221109;23;20063;-87
2022/04/24 06:29:46;;;;;;;7.93;4.47;;;10.00;99.90;;;;;;6220747;23;20016;-89
2022/04/24 06:32:43;;;;;;;8.97;3.90;;;10.30;99.90;;;;;;6248401;23;20020;-90
2022/04/24 06:35:22;;;;;;;6.93;3.47;;;11.20;99.90;;;;;;6243373;23;20016;-85
2022/04/24 06:37:55;;;;;;;7.00;3.60;;;12.10;99.90;;;;;;6195864;23;20020;-85
2022/04/24 06:40:25;;;;;;;6.60;3.20;;;12.50;99.90;;;;;;6220678;23;20063;-86
2022/04/24 06:42:56;;;;;;;6.00;3.17;;;12.90;99.80;;;;;;6220901;23;20020;-87
2022/04/24 06:45:42;;;;;;;7.10;3.20;;;13.30;98.90;;;;;;6247608;23;20350;-87
2022/04/24 06:48:11;;;;;;;5.65;3.13;;;13.60;97.90;;;;;;6195888;23;20009;-89
2022/04/24 06:50:45;;;;;;;8.20;2.80;;;13.80;96.40;;;;;;6220913;23;20043;-89
2022/04/24 06:53:18;;;;;;;9.38;3.47;;;14.00;95.20;;;;;;6195835;23;20020;-88
2022/04/24 06:55:44;;;;;;;7.25;2.80;;;14.10;94.60;;;;;;6195935;23;20318;-90
2022/04/24 06:58:12;;;;;;;7.93;3.40;;;14.20;93.80;;;;;;6220337;23;20048;-85
2022/04/24 07:00:42;;;;;;;6.95;2.92;;;14.00;93.10;;;;;;6195594;23;20016;-86
2022/04/24 07:03:20;;;;;;;6.63;3.30;;;13.60;94.00;;;;;;6220708;23;20016;-87
2022/04/24 07:05:47;;;;;;;5.55;2.47;;;13.20;94.70;;;;;;6192629;23;20028;-87
2022/04/24 07:08:18;;;;;;;5.78;2.65;;;12.80;95.10;;;;;;6196068;23;20016;-93
2022/04/24 07:10:44;;;;;;;6.85;2.88;;;12.50;95.90;;;;;;6196035;23;20017;-90
2022/04/24 07:13:09;;;;;;;6.00;2.90;;;12.40;96.40;;;;;;6195816;23;20016;-85
2022/04/24 07:15:39;;;;;;;6.70;2.93;;;12.50;96.40;;;;;;6221241;23;20012;-90
2022/04/24 07:18:05;;;;;;;6.38;2.78;;;12.40;96.70;;;;;;6221116;23;20095;-86
2022/04/24 07:20:31;;;;;;;12.13;3.40;;;12.30;96.60;;;;;;6195715;23;20476;-90
2022/04/24 07:23:05;;;;;;;5.13;2.80;;;12.20;97.10;;;;;;6221819;23;20016;-89
2022/04/24 07:25:39;;;;;;;4.82;2.78;;;12.20;97.50;;;;;;6221137;23;20026;-89
2022/04/24 07:28:05;;;;;;;5.57;3.13;;;12.30;96.80;;;;;;6195418;23;20013;-86
2022/04/24 07:30:30;;;;;;;6.40;2.60;;;12.50;95.60;;;;;;6195770;23;20395;-87
2022/04/24 07:32:57;;;;;;;6.20;2.83;;;12.50;95.40;;;;;;6220036;23;20338;-86
2022/04/24 07:35:29;;;;;;;6.50;3.05;;;12.40;95.60;;;;;;6220495;23;20020;-85
2022/04/24 07:37:55;;;;;;;8.18;3.25;;;12.40;95.60;;;;;;6247553;23;20096;-86
2022/04/24 07:40:22;;;;;;;6.10;3.00;;;12.40;96.40;;;;;;6220683;23;20020;-88
2022/04/24 07:43:03;;;;;;;5.40;3.05;;;12.40;97.30;;;;;;6194848;23;20012;-91
2022/04/24 07:45:43;;;;;;;6.05;3.22;;;12.40;97.80;;;;;;6218762;23;20012;-91
2022/04/24 07:48:11;;;;;;;7.57;3.40;;;12.40;98.10;;;;;;6247219;23;20341;-90
2022/04/24 07:50:44;;;;;;;5.93;3.20;;;12.40;98.50;;;;;;6220653;23;20020;-90
2022/04/24 07:53:11;;;;;;;7.68;3.33;;;12.40;98.70;;;;;;6220644;23;20024;-89
2022/04/24 07:55:39;;;;;;;;;;;12.40;98.70;;;;;;6247854;23;20009;-91
2022/04/24 07:58:05;;;;;;;6.53;3.10;;;12.50;99.00;;;;;;6220690;23;19963;-93
2022/04/24 08:00:32;;;;;;;7.53;3.10;;;12.50;98.80;;;;;;6220346;23;20036;-88
2022/04/24 08:03:02;;;;;;;9.10;3.10;;;12.60;98.50;;;;;;6247359;23;20450;-91
2022/04/24 08:05:40;;;;;;;7.15;3.67;;;12.60;98.60;;;;;;6247232;23;20020;-91
2022/04/24 08:08:05;;;;;;;;;;;12.60;98.80;;;;;;6221470;23;20461;-88
2022/04/24 08:10:33;;;;;;;6.00;3.10;;;12.70;97.80;;;;;;6220329;23;19911;-90
2022/04/24 08:12:59;;;;;;;7.65;3.10;;;12.60;96.90;;;;;;6220158;23;20023;-90
2022/04/24 08:15:25;;;;;;;6.30;2.97;;;12.60;97.20;;;;;;6247423;23;20012;-87
2022/04/24 08:17:51;;;;;;;8.15;3.08;;;12.70;96.70;;;;;;6195398;23;20027;-90
2022/04/24 08:20:18;;;;;;;6.53;2.93;;;12.70;96.20;;;;;;6220404;23;20023;-87
2022/04/24 08:22:45;;;;;;;;;;;12.70;95.80;;;;;;6195872;23;20012;-87
2022/04/24 08:25:14;;;;;;;7.40;3.17;;;12.70;96.40;;;;;;6220446;23;19926;-92
2022/04/24 08:27:40;;;;;;;8.40;3.47;;;12.70;96.70;;;;;;6247079;23;20043;-91
2022/04/24 08:30:08;;;;;;;6.35;3.13;;;12.90;96.70;;;;;;6220506;23;20027;-90
2022/04/24 08:32:34;;;;;;;7.10;3.30;;;12.90;96.70;;;;;;6220070;23;20121;-91
2022/04/24 08:35:00;;;;;;;8.82;3.35;;;13.00;96.90;;;;;;6220500;23;20012;-90
2022/04/24 08:37:26;;;;;;;7.78;3.53;;;13.10;96.90;;;;;;6246708;23;20024;-88
2022/04/24 08:39:53;;;;;;;8.15;3.50;;;13.10;96.40;;;;;;6219990;23;20020;-91
2022/04/24 08:42:21;;;;;;;7.55;3.83;;;13.10;96.00;;;;;;6246947;23;20020;-89
2022/04/24 08:44:49;;;;;;;6.28;3.30;;;13.00;95.80;;;;;;6246894;23;20044;-90
2022/04/24 08:47:15;;;;;;;9.70;3.38;;;13.10;95.80;;;;;;6246824;23;20012;-88
2022/04/24 08:49:42;;;;;;;7.75;3.75;;;13.00;95.40;;;;;;6220032;23;20008;-90
2022/04/24 08:52:09;;;;;;;8.60;3.22;;;13.00;95.60;;;;;;6246629;23;20039;-88
2022/04/24 08:54:36;;;;;;;7.15;3.55;;;13.10;96.20;;;;;;6220887;23;20092;-89
2022/04/24 08:57:02;;;;;;;7.13;3.65;;;13.10;96.00;;;;;;6197856;23;20027;-94
2022/04/24 08:59:28;;;;;;;6.47;3.67;;;13.20;95.20;;;;;;6196610;23;20095;-90
2022/04/24 09:01:58;;;;;;;8.97;3.80;;;13.20;95.20;;;;;;6197788;23;20016;-91
2022/04/24 09:04:26;;;;;;;7.05;3.70;;;13.20;95.10;;;;;;6247477;23;20101;-87
2022/04/24 09:07:17;;;;;;;8.15;3.20;;;13.30;94.90;;;;;;6221063;23;20020;-88
2022/04/24 09:09:45;;;;;;;5.95;3.08;;;13.20;94.70;;;;;;6196054;23;20012;-89
2022/04/24 09:12:16;;;;;;;9.77;3.80;;;13.30;94.30;;;;;;6195508;23;20027;-87
2022/04/24 09:14:47;;;;;;;6.75;3.10;;;13.30;94.50;;;;;;6195784;23;20016;-92
2022/04/24 09:17:21;;;;;;;6.47;2.70;;;13.40;94.30;;;;;;6197115;23;20019;-94
2022/04/24 09:19:47;;;;;;;6.07;2.92;;;13.50;94.20;;;;;;6223763;23;20048;-92
2022/04/24 09:22:37;;;;;;;6.45;3.22;;;13.50;93.70;;;;;;6222608;23;20019;-90
2022/04/24 09:25:50;;;;;;;7.43;3.05;;;13.50;93.50;;;;;;6196829;23;20055;-88
2022/04/24 09:28:15;;;;;;;5.30;2.45;;;13.50;93.50;;;;;;6221556;23;20020;-93
2022/04/24 09:30:50;;;;;;;6.87;2.67;;;13.60;93.50;;;;;;6197733;23;20016;-95
2022/04/24 09:33:16;;;;;;;4.43;2.50;;;13.60;93.20;;;;;;6197586;23;20023;-91
2022/04/24 09:35:43;;;;;;;6.43;3.10;;;13.70;92.50;;;;;;6219780;23;20437;-87
2022/04/24 09:38:29;;;;;;;5.20;2.10;;;13.80;92.60;;;;;;6220018;23;20455;-90
2022/04/24 09:40:55;;;;;;;7.33;2.80;;;13.90;91.20;;;;;;6195037;23;20025;-89
2022/04/24 09:43:40;;;;;;;7.53;2.73;;;13.90;90.90;;;;;;6193969;23;20681;-88
2022/04/24 09:46:11;;;;;;;6.30;2.53;;;13.80;91.70;;;;;;6168031;23;20016;-88
2022/04/24 09:48:40;;;;;;;6.75;2.60;;;13.90;91.40;;;;;;6194251;23;20016;-91
2022/04/24 09:51:09;;;;;;;9.93;3.05;;;14.00;91.10;;;;;;6194078;23;20020;-87
2022/04/24 09:53:44;;;;;;;7.50;2.50;;;14.00;90.90;;;;;;6194246;23;20020;-90
2022/04/24 09:56:10;;;;;;;7.70;2.65;;;14.00;90.60;;;;;;6218685;23;20027;-86
2022/04/24 09:58:56;;;;;;;5.47;2.90;;;14.00;90.80;;;;;;6219606;23;20043;-88
2022/04/24 10:01:38;;;;;;;5.90;2.70;;;14.00;92.10;;;;;;6218816;23;20062;-84
2022/04/24 10:04:06;;;;;;;5.65;2.53;;;14.20;92.30;;;;;;6193764;23;20458;-87
2022/04/24 10:06:32;;;;;;;7.13;2.70;;;14.30;92.20;;;;;;6246088;23;20031;-90
2022/04/24 10:09:00;;;;;;;6.43;2.90;;;14.50;92.70;;;;;;6218960;23;20073;-87
2022/04/24 10:11:26;;;;;;;6.18;2.90;;;14.60;92.40;;;;;;6218878;23;20008;-91
2022/04/24 10:13:58;;;;;;;6.20;3.30;;;14.70;92.30;;;;;;6219486;23;20433;-88
2022/04/24 10:17:19;;;;;;;6.75;3.20;;;14.70;91.70;;;;;;6194202;23;20020;-89
2022/04/24 10:20:19;;;;;;;5.35;2.35;;;14.80;91.50;;;;;;6194315;23;20016;-86
2022/04/24 10:22:47;;;;;;;5.38;2.60;;;14.90;91.00;;;;;;6219732;23;20020;-87
2022/04/24 10:25:15;;;;;;;7.63;2.60;;;15.00;90.30;;;;;;6218881;23;20016;-87
2022/04/24 10:27:45;;;;;;;5.72;2.60;;;15.00;90.30;;;;;;6219256;23;20024;-88
2022/04/24 10:30:34;;;;;;;4.93;2.28;;;15.00;88.40;;;;;;6245946;23;20020;-88
2022/04/24 10:33:22;;;;;;;4.35;2.10;;;15.00;87.50;;;;;;6194235;23;20145;-86
2022/04/24 10:35:52;;;;;;;5.97;2.22;;;15.00;85.70;;;;;;6193289;23;20091;-86
2022/04/24 10:38:20;;;;;;;6.03;2.20;;;15.00;84.40;;;;;;6218718;23;20016;-85
2022/04/24 10:41:16;;;;;;;4.85;2.33;;;15.00;84.40;;;;;;6245305;23;20016;-88
2022/04/24 10:43:51;;;;;;;5.63;2.30;;;15.00;84.70;;;;;;6195384;23;20012;-86
2022/04/24 10:46:26;;;;;;;10.85;2.30;;;15.10;83.70;;;;;;6193794;23;20047;-89
2022/04/24 10:48:53;;;;;;;7.65;2.90;;;15.20;83.50;;;;;;6219750;23;20135;-90
2022/04/24 10:51:32;;;;;;;7.40;2.40;;;15.30;84.80;;;;;;6193990;23;20024;-88
2022/04/24 10:54:08;;;;;;;6.00;3.08;;;15.40;84.80;;;;;;6219226;23;20016;-89
2022/04/24 10:56:38;;;;;;;8.48;3.13;;;15.40;84.90;;;;;;6218825;23;20442;-86
2022/04/24 10:59:08;;;;;;;6.53;2.85;;;15.50;84.90;;;;;;6194284;23;20024;-87
2022/04/24 11:01:41;;;;;;;6.53;3.10;;;15.50;85.20;;;;;;6193983;23;20020;-88
2022/04/24 11:04:07;;;;;;;5.55;2.97;;;15.50;84.20;;;;;;6218697;23;20017;-86
2022/04/24 11:06:34;;;;;;;6.88;2.90;;;15.50;83.10;;;;;;6218777;23;20078;-88
2022/04/24 11:09:12;;;;;;;7.95;3.08;;;15.40;83.00;;;;;;6194812;23;20020;-88
2022/04/24 11:12:03;;;;;;;5.05;2.70;;;15.40;83.50;;;;;;6220748;23;20019;-90
2022/04/24 11:14:33;;;;;;;6.95;3.22;;;15.50;83.20;;;;;;6196091;23;20047;-89
2022/04/24 11:17:18;;;;;;;6.38;3.15;;;15.40;83.50;;;;;;6196904;23;20074;-88
2022/04/24 11:19:44;;;;;;;6.18;3.50;;;15.50;83.30;;;;;;6195193;23;20023;-87
2022/04/24 11:22:12;;;;;;;5.93;3.22;;;15.50;83.70;;;;;;6195476;23;20495;-89
2022/04/24 11:24:40;;;;;;;6.78;3.67;;;15.50;83.50;;;;;;6220737;23;20069;-89
2022/04/24 11:27:11;;;;;;;7.82;3.90;;;15.50;83.30;;;;;;6220595;23;20090;-90
2022/04/24 11:29:37;;;;;;;8.40;3.83;;;15.50;83.50;;;;;;6196523;23;20031;-92
2022/04/24 11:32:07;;;;;;;7.63;3.53;;;15.50;83.70;;;;;;6195992;23;20008;-90
2022/04/24 11:34:34;;;;;;;9.63;4.22;;;15.60;84.00;;;;;;6196136;23;20078;-89
2022/04/24 11:37:04;;;;;;;8.57;4.22;;;15.60;84.30;;;;;;6221177;23;20004;-91
2022/04/24 11:39:31;;;;;;;7.05;4.03;;;15.60;84.90;;;;;;6195752;23;20024;-88
2022/04/24 11:41:58;;;;;;;7.57;3.85;;;15.60;86.20;;;;;;6247820;23;20323;-90
2022/04/24 11:50:15;;;;;;;8.93;4.05;;;15.60;85.00;;;;;;6220405;23;20031;-85
2022/04/24 11:52:43;;;;;;;8.32;3.70;;;15.60;84.50;;;;;;6220190;23;20016;-88
2022/04/24 11:55:10;;;;;;;7.75;4.30;;;15.60;83.90;;;;;;6220111;23;20381;-84
2022/04/24 11:57:36;;;;;;;7.13;3.80;;;15.50;83.40;;;;;;6246929;23;20048;-87
2022/04/24 12:00:05;;;;;;;7.47;4.05;;;15.50;84.00;;;;;;6219890;23;20349;-84
2022/04/24 12:02:31;;;;;;;10.00;3.75;;;15.50;84.30;;;;;;6220229;23;20076;-86
2022/04/24 12:04:57;;;;;;;6.78;3.90;;;15.50;84.40;;;;;;6220135;23;20475;-85
2022/04/24 12:07:33;;;;;;;7.20;3.38;;;15.50;83.90;;;;;;6220112;23;20399;-86
2022/04/24 12:10:01;;;;;;;6.07;3.78;;;15.50;83.30;;;;;;6246890;23;20012;-87
2022/04/24 12:12:30;;;;;;;7.00;3.58;;;15.60;83.40;;;;;;6195449;23;20099;-86
2022/04/24 12:14:56;;;;;;;8.13;3.47;;;15.50;82.80;;;;;;6219978;23;20023;-87
2022/04/24 12:17:24;;;;;;;8.40;4.45;;;15.50;83.10;;;;;;6219903;23;20512;-86
2022/04/24 12:19:50;;;;;;;8.18;3.58;;;15.50;83.40;;;;;;6246648;23;20016;-87
2022/04/24 12:22:24;;;;;;;7.70;3.67;;;15.40;84.30;;;;;;6219965;23;20047;-87
2022/04/24 12:24:50;;;;;;;7.57;3.28;;;15.50;83.90;;;;;;6220750;23;20492;-88
2022/04/24 12:27:17;;;;;;;6.77;3.70;;;15.40;83.50;;;;;;6221510;23;20016;-89
2022/04/24 12:29:43;;;;;;;;;;;15.40;83.40;;;;;;6221368;23;20013;-90
2022/04/24 12:32:12;;;;;;;8.40;3.60;;;15.30;84.30;;;;;;6247278;23;19916;-89
2022/04/24 12:34:39;;;;;;;5.30;3.15;;;15.40;84.80;;;;;;6195080;23;20251;-88
2022/04/24 12:37:06;;;;;;;7.45;3.35;;;15.40;83.70;;;;;;6195445;23;20081;-88
2022/04/24 12:39:32;;;;;;;8.88;3.55;;;15.50;83.70;;;;;;6218116;23;20505;-88
2022/04/24 12:41:59;;;;;;;6.07;3.78;;;15.60;84.60;;;;;;6246828;23;20022;-84
2022/04/24 12:44:24;;;;;;;;;;;15.60;83.80;;;;;;6219940;23;20016;-87
2022/04/24 12:46:50;;;;;;;7.38;4.28;;;15.70;84.40;;;;;;6219599;23;19915;-89
2022/04/24 12:49:36;;;;;;;6.78;3.45;;;15.70;84.30;;;;;;6219535;23;20078;-89
2022/04/24 12:52:02;;;;;;;10.48;3.42;;;15.70;85.10;;;;;;6194352;23;20020;-86
2022/04/24 12:54:28;;;;;;;18.02;3.70;;;15.70;84.20;;;;;;6194539;23;20019;-87
2022/04/24 12:56:55;;;;;;;6.60;3.50;;;15.60;84.10;;;;;;6194406;23;20133;-89
2022/04/24 12:59:20;;;;;;;7.72;3.55;;;15.70;84.30;;;;;;6246651;23;20023;-88
2022/04/24 13:01:46;;;;;;;7.35;3.65;;;15.60;84.20;;;;;;6194322;23;20020;-87